Overview Statistics Trail Chart Weather Telemetry Raw packets
 

This is the latest recevied weather packets stored in our database for station/object DL6MM-4. If no packets are shown the sender has not sent any weather packets the latest 10 day(s).

<< 1 2 3 4 5 6 >>
Time Temp. Humidity Pressure Rain* Wind** Luminosity Snow
1788544204 16.67° C 82% 1009.6 hPa 0.25 mm - - -
1788543604 16.67° C 82% 1009.4 hPa 0.25 mm - - -
1788543004 16.67° C 82% 1009.2 hPa 0.25 mm - - -
1788542404 17.22° C 82% 1009 hPa 0.25 mm - - -
1788541804 17.22° C 82% 1008.9 hPa 0.25 mm - - -
1788541204 17.22° C 82% 1009 hPa 0.25 mm - - -
1788540604 17.22° C 82% 1008.6 hPa 0.25 mm - - -
1788540004 17.78° C 82% 1008.6 hPa 0 mm - - -
1788539404 17.78° C 82% 1008.6 hPa 0 mm - - -
1788538804 17.78° C 82% 1008.6 hPa 0.25 mm - - -
1788538204 17.78° C 82% 1008.5 hPa 0.25 mm - - -
1788537604 17.78° C 81% 1008.1 hPa 0.25 mm - - -
1788537004 17.78° C 82% 1008.2 hPa 0.51 mm - - -
1788536404 17.78° C 82% 1008.2 hPa 0.51 mm - - -
1788535804 17.78° C 83% 1007.6 hPa 1.02 mm - - -
1788535221 17.78° C 83% 1007.7 hPa 0.76 mm - - -
1788534604 17.78° C 84% 1007.7 hPa 0.51 mm - - -
1788534004 17.78° C 85% 1007.9 hPa 0.51 mm - - -
1788533404 17.78° C 86% 1008.2 hPa 0.25 mm - - -
1788532804 18.33° C 86% 1008.1 hPa 0 mm - - -
1788532204 19.44° C 83% 1007.5 hPa 0 mm - - -
1788531604 20° C 81% 1007.7 hPa 0 mm - - -
1788531004 20.56° C 77% 1007.7 hPa 0 mm - - -
1788530404 22.22° C 73% 1007.6 hPa 0 mm - - -
1788529804 23.33° C 70% 1007.4 hPa 0 mm - - -

* Rain latest hour (hover to see other rain measurements)
** Current wind speed in m/s (hover to see current wind gust speed)